createdAt,value
2022-10-19T00:01:43.746Z,6.80
2022-10-19T00:05:45.423Z,6.80
2022-10-19T00:09:47.129Z,6.80
2022-10-19T00:13:48.959Z,6.80
2022-10-19T00:17:51.199Z,6.80
2022-10-19T00:21:53.244Z,6.80
2022-10-19T00:25:56.222Z,6.70
2022-10-19T00:29:57.876Z,6.70
2022-10-19T00:34:00.083Z,6.70
2022-10-19T00:38:01.771Z,6.60
2022-10-19T00:42:03.612Z,6.60
2022-10-19T00:46:05.275Z,6.50
2022-10-19T00:50:08.074Z,6.60
2022-10-19T00:54:10.332Z,6.50
2022-10-19T00:58:12.886Z,6.50
2022-10-19T01:02:14.807Z,6.50
2022-10-19T01:06:18.753Z,6.60
2022-10-19T01:10:25.606Z,6.50
2022-10-19T01:14:43.251Z,6.50
2022-10-19T01:18:50.564Z,6.50
2022-10-19T01:23:10.130Z,6.40
2022-10-19T01:27:19.454Z,6.40
2022-10-19T01:31:37.691Z,6.40
2022-10-19T01:35:52.358Z,6.40
2022-10-19T01:40:07.897Z,6.40
2022-10-19T01:44:13.640Z,6.40
2022-10-19T01:48:25.424Z,6.30
2022-10-19T01:52:28.489Z,6.30
2022-10-19T01:56:32.537Z,6.30
2022-10-19T02:00:37.812Z,6.20
2022-10-19T02:04:40.818Z,6.20
2022-10-19T02:08:47.893Z,6.10
2022-10-19T02:12:50.974Z,6.10
2022-10-19T02:17:16.928Z,6.10
2022-10-19T02:21:19.380Z,6.20
2022-10-19T02:25:21.936Z,6.10
2022-10-19T02:29:23.749Z,6.10
2022-10-19T02:33:25.984Z,6.00
2022-10-19T02:37:27.838Z,6.10
2022-10-19T02:41:38.098Z,6.00
2022-10-19T02:45:47.859Z,6.00
2022-10-19T02:49:50.052Z,6.00
2022-10-19T02:53:51.694Z,5.90
2022-10-19T02:57:53.766Z,5.90
2022-10-19T03:01:55.512Z,5.90
2022-10-19T03:05:57.128Z,5.80
2022-10-19T03:09:58.765Z,5.80
2022-10-19T03:14:00.429Z,5.90
2022-10-19T03:18:02.148Z,5.80
2022-10-19T03:22:04.440Z,5.90
2022-10-19T03:26:10.051Z,6.00
2022-10-19T03:30:13.984Z,6.30
2022-10-19T03:34:15.636Z,6.30
2022-10-19T03:38:17.384Z,6.60
2022-10-19T03:42:19.014Z,6.80
2022-10-19T03:46:21.512Z,6.90
2022-10-19T03:50:23.275Z,7.10
2022-10-19T03:54:27.337Z,7.30
2022-10-19T03:58:30.967Z,7.40
2022-10-19T04:02:32.667Z,7.50
2022-10-19T04:06:36.917Z,7.60
2022-10-19T04:10:38.589Z,7.70
2022-10-19T04:14:56.411Z,7.60
2022-10-19T04:18:59.098Z,7.70
2022-10-19T04:23:00.773Z,7.70
2022-10-19T04:27:02.534Z,7.70
2022-10-19T04:31:05.925Z,7.70
2022-10-19T04:35:07.921Z,7.70
2022-10-19T04:39:09.724Z,7.60
2022-10-19T04:43:11.412Z,7.40
2022-10-19T04:47:13.117Z,7.30
2022-10-19T04:51:16.113Z,7.30
2022-10-19T04:55:18.044Z,7.20
2022-10-19T04:59:19.974Z,7.10
2022-10-19T05:03:21.659Z,6.90
2022-10-19T05:07:23.365Z,6.80
2022-10-19T05:11:25.671Z,6.60
2022-10-19T05:15:27.405Z,6.50
2022-10-19T05:19:29.090Z,6.40
2022-10-19T05:23:33.846Z,6.20
2022-10-19T05:27:35.748Z,6.20
2022-10-19T05:31:37.744Z,6.00
2022-10-19T05:35:39.371Z,6.00
2022-10-19T05:39:40.985Z,5.90
2022-10-19T05:43:43.804Z,5.80
2022-10-19T05:47:45.479Z,5.80
2022-10-19T05:51:48.373Z,5.70
2022-10-19T05:55:50.043Z,5.60
2022-10-19T05:59:51.919Z,5.60
2022-10-19T06:03:56.604Z,5.60
2022-10-19T06:07:58.286Z,5.50
2022-10-19T06:12:00.004Z,5.40
2022-10-19T06:16:01.832Z,5.40
2022-10-19T06:20:04.231Z,5.40
2022-10-19T06:24:06.562Z,5.30
2022-10-19T06:28:08.352Z,5.30
2022-10-19T06:32:10.005Z,5.30
2022-10-19T06:36:18.240Z,5.30
2022-10-19T06:40:19.939Z,5.20
2022-10-19T06:44:21.700Z,5.10
2022-10-19T06:48:23.812Z,5.20
2022-10-19T06:52:25.537Z,5.10
2022-10-19T06:56:27.791Z,5.10
2022-10-19T07:00:30.620Z,5.20
2022-10-19T07:04:32.510Z,5.30
2022-10-19T07:08:36.025Z,5.30
2022-10-19T07:12:37.666Z,5.40
2022-10-19T07:16:39.350Z,5.40
2022-10-19T07:20:41.311Z,5.50
2022-10-19T07:24:42.986Z,5.70
2022-10-19T07:28:47.057Z,6.40
2022-10-19T07:32:48.860Z,6.80
2022-10-19T07:36:51.799Z,7.20
2022-10-19T07:41:11.141Z,7.40
2022-10-19T07:45:12.818Z,7.80
2022-10-19T07:49:16.411Z,8.00
2022-10-19T07:53:18.108Z,8.20
2022-10-19T07:57:22.169Z,8.40
2022-10-19T08:01:28.301Z,8.70
2022-10-19T08:05:32.944Z,8.80
2022-10-19T08:09:52.304Z,8.80
2022-10-19T08:13:55.915Z,9.00
2022-10-19T08:17:57.652Z,9.30
2022-10-19T08:21:59.350Z,9.40
2022-10-19T08:26:01.022Z,9.60
2022-10-19T08:30:03.202Z,9.80
2022-10-19T08:34:06.130Z,10.00
2022-10-19T08:38:07.791Z,10.10
2022-10-19T08:42:19.222Z,10.20
2022-10-19T08:46:43.934Z,10.30
2022-10-19T08:50:47.432Z,10.50
2022-10-19T08:55:01.011Z,10.60
2022-10-19T08:59:23.629Z,10.60
2022-10-19T09:03:55.120Z,10.90
2022-10-19T09:07:58.045Z,11.10
2022-10-19T09:12:07.404Z,11.10
2022-10-19T09:16:14.165Z,11.30
2022-10-19T09:20:22.272Z,11.30
2022-10-19T09:24:29.880Z,11.50
2022-10-19T09:28:53.533Z,11.70
2022-10-19T09:33:02.515Z,11.70
2022-10-19T09:37:04.656Z,11.80
2022-10-19T09:41:20.685Z,11.80
2022-10-19T09:45:47.560Z,12.00
2022-10-19T09:49:49.503Z,12.30
2022-10-19T09:53:53.762Z,12.50
2022-10-19T09:58:16.283Z,12.80
2022-10-19T10:02:28.870Z,12.90
2022-10-19T10:06:30.662Z,12.80
2022-10-19T10:10:42.449Z,12.60
2022-10-19T10:14:44.960Z,12.60
2022-10-19T10:19:08.786Z,12.50
2022-10-19T10:23:23.693Z,12.50
2022-10-19T10:27:39.147Z,12.60
2022-10-19T10:31:42.319Z,12.60
2022-10-19T10:35:53.337Z,12.70
2022-10-19T10:39:59.191Z,12.70
2022-10-19T10:44:08.471Z,12.70
2022-10-19T10:48:30.193Z,12.70
2022-10-19T10:52:33.148Z,12.70
2022-10-19T10:56:35.508Z,12.80
2022-10-19T11:00:40.124Z,12.90
2022-10-19T11:04:51.458Z,13.10
2022-10-19T11:08:57.223Z,13.00
2022-10-19T11:13:05.920Z,13.00
2022-10-19T11:17:14.368Z,13.10
2022-10-19T11:21:26.656Z,13.20
2022-10-19T11:26:03.203Z,13.30
2022-10-19T11:30:10.326Z,13.40
2022-10-19T11:34:26.020Z,13.60
2022-10-19T11:38:37.037Z,13.60
2022-10-19T11:47:29.894Z,13.80
2022-10-19T11:51:51.811Z,13.90
2022-10-19T11:56:17.276Z,13.90
2022-10-19T12:00:38.038Z,14.00
2022-10-19T12:04:40.101Z,14.10
2022-10-19T12:09:00.616Z,14.10
2022-10-19T12:13:05.268Z,14.30
2022-10-19T12:17:15.454Z,14.30
2022-10-19T12:21:27.725Z,14.30
2022-10-19T12:25:29.717Z,14.40
2022-10-19T12:29:39.443Z,14.50
2022-10-19T12:34:00.870Z,14.60
2022-10-19T12:38:20.431Z,14.70
2022-10-19T12:42:39.214Z,14.70
2022-10-19T12:46:49.807Z,14.70
2022-10-19T12:50:54.524Z,14.80
2022-10-19T12:55:11.871Z,14.90
2022-10-19T12:59:42.543Z,14.90
2022-10-19T13:03:46.852Z,15.10
2022-10-19T13:12:19.868Z,15.30
2022-10-19T13:16:29.795Z,15.40
2022-10-19T13:20:31.760Z,15.60
2022-10-19T13:24:36.150Z,15.70
2022-10-19T13:28:39.082Z,15.70
2022-10-19T13:32:43.570Z,15.70
2022-10-19T13:37:02.273Z,15.80
2022-10-19T13:41:10.235Z,16.00
2022-10-19T13:45:24.978Z,16.00
2022-10-19T13:49:41.771Z,15.90
2022-10-19T13:54:22.728Z,15.90
2022-10-19T13:58:54.028Z,15.90
2022-10-19T14:03:33.535Z,15.90
2022-10-19T14:07:55.213Z,15.70
2022-10-19T14:12:15.228Z,15.60
2022-10-19T14:16:21.630Z,15.60
2022-10-19T14:20:34.053Z,15.40
2022-10-19T14:24:36.843Z,15.30
2022-10-19T14:28:39.670Z,15.20
2022-10-19T14:32:41.398Z,15.10
2022-10-19T14:36:48.736Z,14.90
2022-10-19T14:40:50.461Z,14.70
2022-10-19T14:44:52.716Z,14.60
2022-10-19T14:49:04.345Z,14.50
2022-10-19T14:53:54.045Z,14.40
2022-10-19T14:57:55.871Z,14.20
2022-10-19T15:02:01.219Z,14.10
2022-10-19T15:06:05.920Z,14.10
2022-10-19T15:10:24.265Z,14.10
2022-10-19T15:14:30.582Z,14.10
2022-10-19T15:18:49.754Z,14.10
2022-10-19T15:22:52.048Z,14.20
2022-10-19T15:27:06.470Z,14.10
2022-10-19T15:31:25.634Z,14.20
2022-10-19T15:35:31.359Z,14.10
2022-10-19T15:39:40.937Z,14.20
2022-10-19T15:43:50.032Z,14.20
2022-10-19T15:48:10.212Z,14.10
2022-10-19T15:52:29.592Z,13.90
2022-10-19T15:56:33.648Z,13.90
2022-10-19T16:00:35.357Z,13.80
2022-10-19T16:04:37.026Z,13.70
2022-10-19T16:08:39.076Z,13.60
2022-10-19T16:12:40.955Z,13.50
2022-10-19T16:16:42.738Z,13.30
2022-10-19T16:20:44.553Z,13.20
2022-10-19T16:24:46.250Z,13.00
2022-10-19T16:28:48.712Z,12.80
2022-10-19T16:32:51.099Z,12.60
2022-10-19T16:36:52.902Z,12.30
2022-10-19T16:40:54.590Z,12.20
2022-10-19T16:44:56.292Z,12.00
2022-10-19T16:48:57.973Z,12.00
2022-10-19T16:53:06.221Z,11.90
2022-10-19T16:57:09.891Z,11.80
2022-10-19T17:01:17.497Z,11.70
2022-10-19T17:05:19.092Z,11.70
2022-10-19T17:09:40.748Z,11.50
2022-10-19T17:13:44.441Z,11.50
2022-10-19T17:17:46.124Z,11.40
2022-10-19T17:21:49.438Z,11.30
2022-10-19T17:25:51.329Z,11.20
2022-10-19T17:29:53.039Z,11.10
2022-10-19T17:33:55.098Z,11.00
2022-10-19T17:37:56.733Z,11.00
2022-10-19T17:42:03.223Z,10.90
2022-10-19T17:46:07.849Z,10.90
2022-10-19T17:50:09.948Z,10.80
2022-10-19T17:54:13.691Z,10.80
2022-10-19T17:58:15.355Z,10.80
2022-10-19T18:02:17.018Z,10.70
2022-10-19T18:06:24.811Z,10.70
2022-10-19T18:10:26.507Z,10.70
2022-10-19T18:14:28.219Z,10.60
2022-10-19T18:18:31.997Z,10.60
2022-10-19T18:22:33.705Z,10.60
2022-10-19T18:26:35.499Z,10.60
2022-10-19T18:30:37.579Z,10.60
2022-10-19T18:34:39.287Z,10.60
2022-10-19T18:38:41.267Z,10.60
2022-10-19T18:42:43.342Z,10.50
2022-10-19T18:46:45.885Z,10.50
2022-10-19T18:50:47.872Z,10.40
2022-10-19T18:54:49.728Z,10.30
2022-10-19T18:58:51.474Z,10.20
2022-10-19T19:02:56.260Z,10.10
2022-10-19T19:06:57.931Z,9.80
2022-10-19T19:11:19.846Z,9.60
2022-10-19T19:15:21.577Z,9.50
2022-10-19T19:19:25.714Z,9.30
2022-10-19T19:23:27.460Z,9.30
2022-10-19T19:27:31.755Z,9.20
2022-10-19T19:31:34.101Z,9.10
2022-10-19T19:35:45.605Z,9.00
2022-10-19T19:39:47.312Z,9.10
2022-10-19T19:43:48.993Z,9.10
2022-10-19T19:47:50.636Z,9.00
2022-10-19T19:51:53.337Z,8.80
2022-10-19T19:55:55.001Z,8.70
2022-10-19T19:59:56.749Z,8.60
2022-10-19T20:03:59.533Z,8.60
2022-10-19T20:08:01.268Z,8.40
2022-10-19T20:12:02.961Z,8.30
2022-10-19T20:16:33.260Z,8.20
2022-10-19T20:20:34.904Z,8.10
2022-10-19T20:24:37.740Z,8.00
2022-10-19T20:28:39.574Z,8.00
2022-10-19T20:32:41.204Z,8.00
2022-10-19T20:36:43.185Z,7.90
2022-10-19T20:40:44.852Z,7.90
2022-10-19T20:44:46.520Z,7.90
2022-10-19T20:48:49.316Z,7.80
2022-10-19T20:52:51.002Z,7.80
2022-10-19T20:56:52.824Z,7.80
2022-10-19T21:00:54.509Z,7.80
2022-10-19T21:04:56.176Z,7.80
2022-10-19T21:08:58.726Z,7.90
2022-10-19T21:13:00.431Z,8.10
2022-10-19T21:17:02.073Z,8.20
2022-10-19T21:21:15.613Z,8.20
2022-10-19T21:25:17.274Z,8.10
2022-10-19T21:29:19.216Z,7.90
2022-10-19T21:33:20.925Z,7.80
2022-10-19T21:37:22.609Z,7.70
2022-10-19T21:41:26.418Z,7.60
2022-10-19T21:45:30.650Z,7.50
2022-10-19T21:49:32.697Z,7.50
2022-10-19T21:53:34.368Z,7.50
2022-10-19T21:57:36.453Z,7.50
2022-10-19T22:01:41.082Z,7.50
2022-10-19T22:05:53.349Z,7.70
2022-10-19T22:09:56.525Z,7.90
2022-10-19T22:14:00.653Z,7.90
2022-10-19T22:18:02.343Z,8.00
2022-10-19T22:22:03.993Z,7.90
2022-10-19T22:26:13.496Z,7.70
2022-10-19T22:30:15.185Z,7.60
2022-10-19T22:34:17.778Z,7.50
2022-10-19T22:38:19.441Z,7.40
2022-10-19T22:42:21.087Z,7.30
2022-10-19T22:46:22.837Z,7.30
2022-10-19T22:50:24.508Z,7.20
2022-10-19T22:54:26.211Z,7.10
2022-10-19T22:58:27.902Z,7.10
2022-10-19T23:02:29.694Z,7.10
2022-10-19T23:06:31.349Z,7.10
2022-10-19T23:10:33.284Z,7.10
2022-10-19T23:14:34.913Z,7.00
2022-10-19T23:18:38.936Z,7.10
2022-10-19T23:22:40.657Z,7.20
2022-10-19T23:26:42.273Z,7.70
2022-10-19T23:30:43.940Z,8.00
2022-10-19T23:34:48.274Z,8.30
2022-10-19T23:38:51.549Z,8.60
2022-10-19T23:42:53.235Z,8.90
2022-10-19T23:46:54.897Z,9.20
2022-10-19T23:51:08.379Z,9.30
2022-10-19T23:55:10.179Z,9.50
2022-10-19T23:59:11.903Z,9.70
